createdAt,value
2022-10-22T00:02:35.000Z,19.95
2022-10-22T00:07:35.000Z,20.05
2022-10-22T00:12:35.000Z,20
2022-10-22T00:17:34.000Z,20
2022-10-22T00:22:35.000Z,19.31
2022-10-22T00:27:34.000Z,19.59
2022-10-22T00:32:35.000Z,20.31
2022-10-22T00:37:34.000Z,20.09
2022-10-22T00:42:35.000Z,19.2
2022-10-22T00:47:35.000Z,19.49
2022-10-22T00:52:34.000Z,19.72
2022-10-22T00:57:35.000Z,19.34
2022-10-22T01:02:35.000Z,19.4
2022-10-22T01:07:34.000Z,18.6
2022-10-22T01:12:35.000Z,17.41
2022-10-22T01:17:35.000Z,18.09
2022-10-22T01:22:35.000Z,17
2022-10-22T01:27:34.000Z,18.56
2022-10-22T01:32:34.000Z,18.56
2022-10-22T01:37:34.000Z,19.89
2022-10-22T01:42:35.000Z,21.03
2022-10-22T01:47:34.000Z,19.89
2022-10-22T01:52:34.000Z,18.37
2022-10-22T01:57:35.000Z,18.53
2022-10-22T02:02:34.000Z,17.55
2022-10-22T02:07:35.000Z,17.5
2022-10-22T02:12:35.000Z,16.58
2022-10-22T02:17:35.000Z,15.98
2022-10-22T02:22:34.000Z,16.04
2022-10-22T02:27:37.000Z,16.19
2022-10-22T02:32:34.000Z,18.24
2022-10-22T02:42:34.000Z,20.9
2022-10-22T02:47:35.000Z,20.68
2022-10-22T02:52:34.000Z,22.31
2022-10-22T02:57:34.000Z,21.86
2022-10-22T03:02:34.000Z,21.73
2022-10-22T03:07:34.000Z,22.39
2022-10-22T03:12:34.000Z,22.68
2022-10-22T03:17:34.000Z,21.9
2022-10-22T03:22:34.000Z,20.82
2022-10-22T03:27:35.000Z,19.43
2022-10-22T03:32:34.000Z,19.43
2022-10-22T03:37:35.000Z,19.1
2022-10-22T03:42:35.000Z,18.82
2022-10-22T03:47:35.000Z,18.45
2022-10-22T03:52:34.000Z,18.2
2022-10-22T03:57:34.000Z,18.44
2022-10-22T04:02:34.000Z,17.97
2022-10-22T04:07:34.000Z,17.99
2022-10-22T04:12:35.000Z,18.83
2022-10-22T04:17:35.000Z,19.37
2022-10-22T04:22:35.000Z,19.23
2022-10-22T04:32:35.000Z,18.76
2022-10-22T04:37:35.000Z,19.79
2022-10-22T04:42:35.000Z,19.52
2022-10-22T04:47:35.000Z,19.38
2022-10-22T04:52:34.000Z,19.38
2022-10-22T04:57:35.000Z,19.18
2022-10-22T05:02:35.000Z,18.2
2022-10-22T05:07:35.000Z,17.89
2022-10-22T05:17:35.000Z,16.37
2022-10-22T05:22:34.000Z,17.47
2022-10-22T05:27:34.000Z,17.04
2022-10-22T05:32:35.000Z,16.59
2022-10-22T05:37:35.000Z,17.02
2022-10-22T05:42:35.000Z,17.8
2022-10-22T05:47:34.000Z,17.8
2022-10-22T05:52:35.000Z,16.72
2022-10-22T05:57:35.000Z,16.69
2022-10-22T06:02:35.000Z,16.69
2022-10-22T06:07:35.000Z,17.99
2022-10-22T06:12:34.000Z,17.57
2022-10-22T06:17:35.000Z,19.21
2022-10-22T06:22:35.000Z,18.74
2022-10-22T06:27:34.000Z,19.09
2022-10-22T06:32:35.000Z,19.14
2022-10-22T06:37:34.000Z,19.97
2022-10-22T07:12:35.000Z,20.77
2022-10-22T07:17:34.000Z,20.47
2022-10-22T07:22:34.000Z,20.44
2022-10-22T07:27:34.000Z,20.05
2022-10-22T07:32:35.000Z,20.05
2022-10-22T07:37:35.000Z,20.25
2022-10-22T07:42:35.000Z,20.89
2022-10-22T07:47:34.000Z,19.71
2022-10-22T07:52:34.000Z,19.47
2022-10-22T07:57:34.000Z,15.76
2022-10-22T08:02:35.000Z,13.34
2022-10-22T08:07:35.000Z,16.94
2022-10-22T08:12:34.000Z,16.56
2022-10-22T08:17:35.000Z,17.73
2022-10-22T08:22:34.000Z,17.06
2022-10-22T08:27:35.000Z,17.48
2022-10-22T08:32:35.000Z,18.64
2022-10-22T08:37:34.000Z,19.78
2022-10-22T08:42:35.000Z,19.78
2022-10-22T08:47:35.000Z,19.94
2022-10-22T08:52:34.000Z,20.91
2022-10-22T08:57:35.000Z,20.29
2022-10-22T09:02:34.000Z,20.75
2022-10-22T09:07:34.000Z,20.47
2022-10-22T09:12:35.000Z,20.51
2022-10-22T09:22:35.000Z,20.27
2022-10-22T09:27:35.000Z,20.86
2022-10-22T09:32:35.000Z,21.19
2022-10-22T09:37:35.000Z,21.39
2022-10-22T09:47:53.000Z,19.04
2022-10-22T09:52:35.000Z,18.35
2022-10-22T09:57:35.000Z,18.03
2022-10-22T10:02:48.000Z,14.48
2022-10-22T10:07:34.000Z,13.34
2022-10-22T10:12:34.000Z,13.89
2022-10-22T10:17:35.000Z,13.8
2022-10-22T10:22:34.000Z,14.23
2022-10-22T10:27:35.000Z,13.95
2022-10-22T10:32:34.000Z,14.02
2022-10-22T10:37:34.000Z,12.35
2022-10-22T10:42:35.000Z,12.29
2022-10-22T10:47:34.000Z,12.68
2022-10-22T10:52:35.000Z,12.68
2022-10-22T11:02:35.000Z,11.89
2022-10-22T11:07:44.000Z,11.87
2022-10-22T11:12:34.000Z,11.93
2022-10-22T11:17:35.000Z,11.93
2022-10-22T11:22:37.000Z,11.94
2022-10-22T11:27:35.000Z,11.62
2022-10-22T11:32:34.000Z,11.2
2022-10-22T11:37:35.000Z,10.72
2022-10-22T11:42:34.000Z,11.26
2022-10-22T11:47:35.000Z,11.96
2022-10-22T11:52:35.000Z,12.19
2022-10-22T11:57:35.000Z,11.71
2022-10-22T12:02:34.000Z,23.22
2022-10-22T12:07:34.000Z,12.24
2022-10-22T12:12:35.000Z,13.06
2022-10-22T12:17:34.000Z,14.08
2022-10-22T12:22:35.000Z,18.03
2022-10-22T12:27:34.000Z,20.54
2022-10-22T12:32:34.000Z,20.54
2022-10-22T12:37:35.000Z,16.75
2022-10-22T12:42:34.000Z,17.44
2022-10-22T12:47:35.000Z,16.99
2022-10-22T12:52:34.000Z,16.74
2022-10-22T12:57:34.000Z,16.22
2022-10-22T13:02:35.000Z,15.12
2022-10-22T13:07:34.000Z,16.84
2022-10-22T13:12:35.000Z,17
2022-10-22T13:17:35.000Z,15.71
2022-10-22T13:22:35.000Z,18.44
2022-10-22T13:27:34.000Z,19.22
2022-10-22T13:32:35.000Z,17.51
2022-10-22T13:37:35.000Z,19.2
2022-10-22T13:42:34.000Z,24.84
2022-10-22T13:47:35.000Z,24.84
2022-10-22T13:52:35.000Z,23.63
2022-10-22T13:57:34.000Z,20.84
2022-10-22T14:02:35.000Z,17.42
2022-10-22T14:07:35.000Z,15.22
2022-10-22T14:12:35.000Z,15.49
2022-10-22T14:17:35.000Z,18.09
2022-10-22T14:27:35.000Z,17.99
2022-10-22T14:47:35.000Z,22.43
2022-10-22T14:57:34.000Z,18.29
2022-10-22T15:02:34.000Z,17.76
2022-10-22T15:07:35.000Z,17.37
2022-10-22T15:12:36.000Z,16.07
2022-10-22T15:42:34.000Z,16.37
2022-10-22T16:07:35.000Z,21.19
2022-10-22T16:42:34.000Z,24.47
2022-10-22T16:47:35.000Z,22.31
2022-10-22T16:52:35.000Z,24.18
2022-10-22T16:57:35.000Z,22.27
2022-10-22T17:02:35.000Z,21.03
2022-10-22T17:07:34.000Z,20.21
2022-10-22T17:12:34.000Z,19.55
2022-10-22T17:17:35.000Z,17.97
2022-10-22T17:22:35.000Z,18.16
2022-10-22T17:27:35.000Z,18.16
2022-10-22T17:32:35.000Z,16.46
2022-10-22T17:42:34.000Z,15.66
2022-10-22T17:47:35.000Z,15.9
2022-10-22T17:52:35.000Z,16.07
2022-10-22T17:57:34.000Z,16.23
2022-10-22T18:02:34.000Z,15.86
2022-10-22T18:07:34.000Z,14.95
2022-10-22T18:12:35.000Z,15.3
2022-10-22T18:17:34.000Z,15.56
2022-10-22T18:22:35.000Z,14.73
2022-10-22T18:27:34.000Z,14.87
2022-10-22T18:32:35.000Z,15.86
2022-10-22T18:37:35.000Z,15.86
2022-10-22T18:52:35.000Z,15.39
2022-10-22T18:57:35.000Z,15.33
2022-10-22T19:02:34.000Z,15.57
2022-10-22T19:07:35.000Z,15.27
2022-10-22T19:12:34.000Z,14.83
2022-10-22T19:22:34.000Z,14.69
2022-10-22T19:27:34.000Z,15.77
2022-10-22T19:32:40.000Z,15.77
2022-10-22T19:37:35.000Z,15.19
2022-10-22T19:42:35.000Z,15.97
2022-10-22T19:47:34.000Z,15.57
2022-10-22T19:52:34.000Z,16.23
2022-10-22T19:57:35.000Z,14.55
2022-10-22T20:02:34.000Z,15.5
2022-10-22T20:07:34.000Z,15.57
2022-10-22T20:12:34.000Z,15.47
2022-10-22T20:17:35.000Z,15.56
2022-10-22T20:22:35.000Z,15.68
2022-10-22T20:27:34.000Z,15.12
2022-10-22T20:32:35.000Z,12.71
2022-10-22T20:37:35.000Z,13.04
2022-10-22T20:42:34.000Z,13.04
2022-10-22T20:52:35.000Z,12.23
2022-10-22T20:57:35.000Z,12.56
2022-10-22T21:02:34.000Z,12.46
2022-10-22T21:07:34.000Z,10.96
2022-10-22T21:12:35.000Z,11.57
2022-10-22T21:17:34.000Z,11.87
2022-10-22T21:22:34.000Z,10.61
2022-10-22T21:27:34.000Z,11.28
2022-10-22T21:32:34.000Z,10.84
2022-10-22T21:37:35.000Z,10.46
2022-10-22T21:42:35.000Z,10.87
2022-10-22T21:47:35.000Z,10.92
2022-10-22T21:52:35.000Z,11.72
2022-10-22T21:57:34.000Z,11.72
2022-10-22T22:02:35.000Z,9.76
2022-10-22T22:07:34.000Z,10.65
2022-10-22T22:12:35.000Z,9.9
2022-10-22T22:17:35.000Z,11.14
2022-10-22T22:22:35.000Z,11.08
2022-10-22T22:27:34.000Z,10.13
2022-10-22T22:32:35.000Z,10.06
2022-10-22T22:37:35.000Z,9.37
2022-10-22T22:47:35.000Z,9.53
2022-10-22T22:52:35.000Z,10.13
2022-10-22T22:57:35.000Z,9.53
2022-10-22T23:02:34.000Z,9.35
2022-10-22T23:07:34.000Z,10.26
2022-10-22T23:12:35.000Z,9.98
2022-10-22T23:22:34.000Z,9.74
2022-10-22T23:27:35.000Z,8.82
2022-10-22T23:32:34.000Z,10.25
2022-10-22T23:37:35.000Z,8.97
2022-10-22T23:42:34.000Z,8.97
2022-10-22T23:47:34.000Z,9.67
2022-10-22T23:52:34.000Z,9.94
2022-10-22T23:57:35.000Z,9.06
